Palembang
Home > Kaskuser Regional > INDONESIA > SUMATERA > Palembang > ▓▓▒▒ Radar Cuaca Palembang dan Sekitarnya ▒▒▓▓
Total Views: 14903 Share : Facebook ShareFacebook Twitter ShareTwitter Google+ ShareGoogle+
Page 14 of 64 | ‹ First  < 9 10 11 12 13 14 15 16 17 18 19 >  Last ›

dianabazz - 25/07/2011 08:18 AM
#261

Pencitraan satelit 24 Juli 2011 pukul 23.00 UTC, atau 25 Juli 2011 pukul 06.00 WIB

▓▓▒▒ Radar Cuaca Palembang dan Sekitarnya ▒▒▓▓
dianabazz - 25/07/2011 10:26 AM
#262

▓▓▒▒ Radar Cuaca Palembang dan Sekitarnya ▒▒▓▓
dianabazz - 25/07/2011 10:28 AM
#263

Pencitraan satelit 25 Juli 2011 pukul 01.00 UTC atau 25 Juli 2011 pukul 08.00 WIB

▓▓▒▒ Radar Cuaca Palembang dan Sekitarnya ▒▒▓▓
mangcak85 - 25/07/2011 02:10 PM
#264

Bermanfaaat sekali,....recsel





Boleh minta lebih di zooming khusus daerah sumsel gan tuk cintra lansatnya,...klo berkenan kalo tidak ya dpp heheecendolbig
dianabazz - 26/07/2011 09:43 AM
#265

Quote:
Original Posted By mangcak85
Bermanfaaat sekali,....recsel





Boleh minta lebih di zooming khusus daerah sumsel gan tuk cintra lansatnya,...klo berkenan kalo tidak ya dpp heheecendolbig

sukurlah klo memang bermanfaat \)

diusahake dulu mang, dari site nyo memang lah sudah keseluruhan cak itu
thks D
dianabazz - 26/07/2011 09:45 AM
#266

T A F O R


FTID32 WIPP 252304
TAF WIPP 252300Z 2600/2624 00000KT 2000 HZ SCT012 BECMG 2601/2603 13008KT 9999 NSW SCT016 TEMPO 2608/2612 20010KT -RA FEW020CB SCT015 TEMPO 2620/2624 00000KT 2000 HZ SCT012=


Bingung cara bacanya???bingungs
klik aja Cara membaca TAFOR
dianabazz - 26/07/2011 06:18 PM
#267

▓▓▒▒ Radar Cuaca Palembang dan Sekitarnya ▒▒▓▓
dianabazz - 26/07/2011 06:19 PM
#268

T A F O R


FTID32 WIPP 260434
TAF WIPP 260430Z 2606/2706 13008KT 9999 NSW SCT016TEMPO 2608/2612 20010KT -RA FEW020CB SCT015 TEMPO 2620/2624 00000KT 2000 HZ SCT012 BECMG 2701/2703 15006KT 9999 SCT016=


Bingung cara bacanya???bingungs
klik aja Cara membaca TAFOR
dianabazz - 26/07/2011 10:10 PM
#269

T A F O R


FTID32 WIPP 261100
TAF WIPP 261100Z 2612/2712 14006KT 9999 FEW018 TEMPO 2621/2701 3000 HZ FEW015 BECMG 2701/2703 15009KT 9999 NSW SCT017=


Bingung cara bacanya???bingungs
klik aja Cara membaca TAFOR
dianabazz - 27/07/2011 03:22 PM
#270

▓▓▒▒ Radar Cuaca Palembang dan Sekitarnya ▒▒▓▓
dianabazz - 27/07/2011 03:23 PM
#271

T A F O R


FTID32 WIPP 270425
TAF WIPP 270400Z 2706/2806 14009KT 9999 SCT016 BECMG 2711/2713 10005KT FEW015 TEMPO 2721/2801 00000KT 3000 HZ BECMG 2801/2803 18006KT 9999 NSW SCT015=


Bingung cara bacanya???bingungs
klik aja Cara membaca TAFOR
erasson - 27/07/2011 03:25 PM
#272

Quote:
Original Posted By dianabazz
▓▓▒▒ Radar Cuaca Palembang dan Sekitarnya ▒▒▓▓


nah palembang nak ujan rain:
dak jadi nyuci kalo cakitu o
dianabazz - 27/07/2011 03:26 PM
#273

Citra satelit Infra Red

▓▓▒▒ Radar Cuaca Palembang dan Sekitarnya ▒▒▓▓
dianabazz - 27/07/2011 03:26 PM
#274

Quote:
Original Posted By erasson


nah palembang nak ujan rain:
dak jadi nyuci kalo cakitu o

jarang nian mang nyuci baju D
dak laundry bae
dianabazz - 27/07/2011 03:28 PM
#275

Citra satelit Visible

▓▓▒▒ Radar Cuaca Palembang dan Sekitarnya ▒▒▓▓
erasson - 27/07/2011 03:58 PM
#276

Quote:
Original Posted By dianabazz
jarang nian mang nyuci baju D
dak laundry bae


nah bener jg kak D

btw, d gambar satelit itu yg putih2 tu awan y?
ngapo dk ado awan yg abu2 nyo kak eek:
dianabazz - 29/07/2011 02:12 PM
#277

Quote:
Original Posted By erasson

nah bener jg kak D

btw, d gambar satelit itu yg putih2 tu awan y?
ngapo dk ado awan yg abu2 nyo kak eek:


iyo itu awan, klo abu2 tu berarti blm ado cendolnyo mang D
dianabazz - 29/07/2011 02:40 PM
#278

T A F O R


FTID32 WIPP 290405
TAF WIPP 290400Z 2906/3006 15009KT 9999 NSW SCT017 TEMPO 2921/2201 12005KT 4000 HZ FEW015=


Bingung cara bacanya???bingungs
klik aja Cara membaca TAFOR
dianabazz - 29/07/2011 02:42 PM
#279

▓▓▒▒ Radar Cuaca Palembang dan Sekitarnya ▒▒▓▓
dianabazz - 29/07/2011 02:42 PM
#280

▓▓▒▒ Radar Cuaca Palembang dan Sekitarnya ▒▒▓▓
Page 14 of 64 | ‹ First  < 9 10 11 12 13 14 15 16 17 18 19 >  Last ›
Home > Kaskuser Regional > INDONESIA > SUMATERA > Palembang > ▓▓▒▒ Radar Cuaca Palembang dan Sekitarnya ▒▒▓▓